createdAt,value
2023-01-26T00:01:08.116Z,15.98
2023-01-26T00:03:34.506Z,15.10
2023-01-26T00:06:07.358Z,16.60
2023-01-26T00:08:40.772Z,16.58
2023-01-26T00:11:08.223Z,16.15
2023-01-26T00:13:35.149Z,16.92
2023-01-26T00:16:02.208Z,15.90
2023-01-26T00:18:28.705Z,16.70
2023-01-26T00:20:56.366Z,15.73
2023-01-26T00:23:22.693Z,16.95
2023-01-26T00:25:49.042Z,15.80
2023-01-26T00:28:15.393Z,16.30
2023-01-26T00:30:41.840Z,16.90
2023-01-26T00:33:08.324Z,16.52
2023-01-26T00:35:34.650Z,15.65
2023-01-26T00:38:01.145Z,17.52
2023-01-26T00:40:27.505Z,15.82
2023-01-26T00:42:54.676Z,15.27
2023-01-26T00:45:21.484Z,17.15
2023-01-26T00:47:47.826Z,16.73
2023-01-26T00:50:14.423Z,18.48
2023-01-26T00:52:40.889Z,18.30
2023-01-26T00:55:07.433Z,17.52
2023-01-26T00:57:33.760Z,16.80
2023-01-26T01:00:00.195Z,17.33
2023-01-26T01:02:26.568Z,18.63
2023-01-26T01:04:52.916Z,18.63
2023-01-26T01:07:19.226Z,17.05
2023-01-26T01:09:45.900Z,19.05
2023-01-26T01:12:12.258Z,17.85
2023-01-26T01:14:38.664Z,18.48
2023-01-26T01:17:05.052Z,18.55
2023-01-26T01:19:31.392Z,18.75
2023-01-26T01:21:57.812Z,19.40
2023-01-26T01:24:24.321Z,19.77
2023-01-26T01:26:50.736Z,19.23
2023-01-26T01:29:17.060Z,20.27
2023-01-26T01:31:43.701Z,20.40
2023-01-26T01:34:10.196Z,19.48
2023-01-26T01:36:36.523Z,20.90
2023-01-26T01:39:02.901Z,19.83
2023-01-26T01:41:29.248Z,20.08
2023-01-26T01:44:15.407Z,20.38
2023-01-26T01:46:55.913Z,20.38
2023-01-26T01:49:24.990Z,20.02
2023-01-26T01:51:53.882Z,21.55
2023-01-26T01:54:23.513Z,21.15
2023-01-26T01:56:51.980Z,21.48
2023-01-26T01:59:21.327Z,21.48
2023-01-26T02:01:49.865Z,21.45
2023-01-26T02:04:16.452Z,21.02
2023-01-26T02:06:47.115Z,21.85
2023-01-26T02:09:34.118Z,21.65
2023-01-26T02:12:02.194Z,22.55
2023-01-26T02:14:29.146Z,22.90
2023-01-26T02:16:55.536Z,23.10
2023-01-26T02:19:48.305Z,22.27
2023-01-26T02:22:22.139Z,22.67
2023-01-26T02:24:49.469Z,22.80
2023-01-26T02:27:15.853Z,22.95
2023-01-26T02:29:42.641Z,23.23
2023-01-26T02:32:08.957Z,22.95
2023-01-26T02:34:35.370Z,21.95
2023-01-26T02:37:01.747Z,24.30
2023-01-26T02:39:47.233Z,21.83
2023-01-26T02:42:32.351Z,21.93
2023-01-26T02:44:58.692Z,22.77
2023-01-26T02:47:24.991Z,22.45
2023-01-26T02:49:51.378Z,22.88
2023-01-26T02:52:19.094Z,22.60
2023-01-26T02:55:04.409Z,22.73
2023-01-26T02:57:30.976Z,23.15
2023-01-26T02:59:57.372Z,21.75
2023-01-26T03:02:23.776Z,21.63
2023-01-26T03:04:50.138Z,21.92
2023-01-26T03:07:16.802Z,21.23
2023-01-26T03:09:43.117Z,21.73
2023-01-26T03:12:09.485Z,22.85
2023-01-26T03:14:35.813Z,23.13
2023-01-26T03:17:02.219Z,21.65
2023-01-26T03:19:47.083Z,21.40
2023-01-26T03:22:31.986Z,21.60
2023-01-26T03:25:16.709Z,22.17
2023-01-26T03:27:44.786Z,20.45
2023-01-26T03:30:11.793Z,21.58
2023-01-26T03:32:38.349Z,22.13
2023-01-26T03:35:05.005Z,21.23
2023-01-26T03:37:36.698Z,21.63
2023-01-26T03:40:22.457Z,22.42
2023-01-26T03:43:07.526Z,20.55
2023-01-26T03:45:52.605Z,21.40
2023-01-26T03:48:37.796Z,22.90
2023-01-26T03:51:22.798Z,20.70
2023-01-26T03:54:07.885Z,22.52
2023-01-26T03:56:34.300Z,21.65
2023-01-26T03:59:12.867Z,22.65
2023-01-26T04:01:40.136Z,22.02
2023-01-26T04:04:25.921Z,21.73
2023-01-26T04:07:10.985Z,21.15
2023-01-26T04:09:39.470Z,21.20
2023-01-26T04:12:06.428Z,22.35
2023-01-26T04:14:51.531Z,21.48
2023-01-26T04:17:37.184Z,20.95
2023-01-26T04:20:23.257Z,22.00
2023-01-26T04:22:49.639Z,21.00
2023-01-26T04:25:17.628Z,21.73
2023-01-26T04:27:44.482Z,20.77
2023-01-26T04:30:12.162Z,21.10
2023-01-26T04:32:39.009Z,22.10
2023-01-26T04:35:06.243Z,21.38
2023-01-26T04:37:32.802Z,20.98
2023-01-26T04:39:59.167Z,22.17
2023-01-26T04:42:25.604Z,22.13
2023-01-26T04:44:52.379Z,21.80
2023-01-26T04:47:19.249Z,21.88
2023-01-26T04:49:45.991Z,21.20
2023-01-26T04:52:12.771Z,21.10
2023-01-26T04:54:39.416Z,20.60
2023-01-26T04:57:05.994Z,20.50
2023-01-26T04:59:32.418Z,20.55
2023-01-26T05:01:58.833Z,21.92
2023-01-26T05:04:25.229Z,20.30
2023-01-26T05:06:51.691Z,20.48
2023-01-26T05:09:18.087Z,19.70
2023-01-26T05:11:44.395Z,21.17
2023-01-26T05:14:10.802Z,19.70
2023-01-26T05:16:37.195Z,19.40
2023-01-26T05:19:03.611Z,19.98
2023-01-26T05:21:30.066Z,18.65
2023-01-26T05:23:56.519Z,17.67
2023-01-26T05:26:23.190Z,18.00
2023-01-26T05:28:49.594Z,18.25
2023-01-26T05:31:15.953Z,18.15
2023-01-26T05:33:42.326Z,18.63
2023-01-26T05:36:08.962Z,19.27
2023-01-26T05:38:35.399Z,19.45
2023-01-26T05:41:01.758Z,18.65
2023-01-26T05:43:28.110Z,18.70
2023-01-26T05:45:54.667Z,17.58
2023-01-26T05:48:22.080Z,18.23
2023-01-26T05:50:48.422Z,16.73
2023-01-26T05:53:15.117Z,14.45
2023-01-26T05:55:41.451Z,14.50
2023-01-26T05:58:07.861Z,12.70
2023-01-26T06:00:34.309Z,10.90
2023-01-26T06:03:00.626Z,9.52
2023-01-26T06:05:26.962Z,9.15
2023-01-26T06:07:53.361Z,10.15
2023-01-26T06:10:19.748Z,8.77
2023-01-26T06:12:46.109Z,8.50
2023-01-26T06:15:12.695Z,7.88
2023-01-26T06:17:39.420Z,7.68
2023-01-26T06:20:06.520Z,7.13
2023-01-26T06:22:32.852Z,6.28
2023-01-26T06:24:59.185Z,5.55
2023-01-26T06:27:25.480Z,5.65
2023-01-26T06:29:51.851Z,5.55
2023-01-26T06:32:18.519Z,5.30
2023-01-26T06:34:44.832Z,4.57
2023-01-26T06:37:11.234Z,4.53
2023-01-26T06:39:37.881Z,4.18
2023-01-26T06:42:04.635Z,4.72
2023-01-26T06:44:30.952Z,3.78
2023-01-26T06:46:57.352Z,3.40
2023-01-26T06:49:23.678Z,4.60
2023-01-26T06:52:03.267Z,3.50
2023-01-26T06:54:29.570Z,4.45
2023-01-26T06:56:55.938Z,3.42
2023-01-26T06:59:22.228Z,4.07
2023-01-26T07:01:49.040Z,3.17
2023-01-26T07:04:16.178Z,4.38
2023-01-26T07:06:43.673Z,3.90
2023-01-26T07:09:10.676Z,4.05
2023-01-26T07:11:37.285Z,2.72
2023-01-26T07:14:03.778Z,3.55
2023-01-26T07:16:31.949Z,3.40
2023-01-26T07:19:00.023Z,4.30
2023-01-26T07:21:28.250Z,3.45
2023-01-26T07:23:55.378Z,3.45
2023-01-26T07:26:22.168Z,3.05
2023-01-26T07:28:48.520Z,2.42
2023-01-26T07:31:15.191Z,3.45
2023-01-26T07:33:41.621Z,3.40
2023-01-26T07:36:08.151Z,3.38
2023-01-26T07:38:34.597Z,2.60
2023-01-26T07:41:05.116Z,3.10
2023-01-26T07:43:32.601Z,3.72
2023-01-26T07:45:58.934Z,2.88
2023-01-26T07:48:25.384Z,3.00
2023-01-26T07:50:51.917Z,2.75
2023-01-26T07:53:22.812Z,2.67
2023-01-26T07:55:49.430Z,3.80
2023-01-26T07:58:16.055Z,3.55
2023-01-26T08:00:42.445Z,3.10
2023-01-26T08:03:08.868Z,2.75
2023-01-26T08:05:36.983Z,4.45
2023-01-26T08:08:03.641Z,3.08
2023-01-26T08:10:31.615Z,3.42
2023-01-26T08:13:01.159Z,2.65
2023-01-26T08:15:27.982Z,2.92
2023-01-26T08:17:54.919Z,3.70
2023-01-26T08:20:21.596Z,3.15
2023-01-26T08:22:47.920Z,4.00
2023-01-26T08:25:14.339Z,3.25
2023-01-26T08:27:40.641Z,2.72
2023-01-26T08:30:07.721Z,3.00
2023-01-26T08:32:34.258Z,3.08
2023-01-26T08:35:00.784Z,3.33
2023-01-26T08:37:27.264Z,3.83
2023-01-26T08:39:53.668Z,3.72
2023-01-26T08:42:32.481Z,2.78
2023-01-26T08:44:58.828Z,5.38
2023-01-26T08:47:25.144Z,3.08
2023-01-26T08:49:51.520Z,3.90
2023-01-26T08:52:17.959Z,3.20
2023-01-26T08:54:44.377Z,4.05
2023-01-26T08:57:12.246Z,2.83
2023-01-26T08:59:38.568Z,3.08
2023-01-26T09:02:04.944Z,3.58
2023-01-26T09:04:31.360Z,3.35
2023-01-26T09:06:57.697Z,2.83
2023-01-26T09:09:24.453Z,3.38
2023-01-26T09:11:50.942Z,3.03
2023-01-26T09:14:17.364Z,3.25
2023-01-26T09:16:43.765Z,2.83
2023-01-26T09:19:10.099Z,2.97
2023-01-26T09:21:36.427Z,3.30
2023-01-26T09:24:02.881Z,3.10
2023-01-26T09:26:29.574Z,3.17
2023-01-26T09:28:55.918Z,3.75
2023-01-26T09:31:22.306Z,3.42
2023-01-26T09:33:49.815Z,3.15
2023-01-26T09:36:16.332Z,3.63
2023-01-26T09:38:42.649Z,3.47
2023-01-26T09:41:09.033Z,4.03
2023-01-26T09:43:57.197Z,3.85
2023-01-26T09:46:25.386Z,3.40
2023-01-26T09:48:57.843Z,3.97
2023-01-26T09:51:26.934Z,3.15
2023-01-26T09:53:59.359Z,3.40
2023-01-26T09:56:30.802Z,3.53
2023-01-26T09:59:06.626Z,3.03
2023-01-26T10:04:25.423Z,3.22
2023-01-26T10:06:56.690Z,2.60
2023-01-26T10:09:24.864Z,3.17
2023-01-26T10:11:53.117Z,4.50
2023-01-26T10:14:24.321Z,3.08
2023-01-26T10:16:51.574Z,2.83
2023-01-26T10:19:36.292Z,2.80
2023-01-26T10:22:05.971Z,2.60
2023-01-26T10:24:33.259Z,3.38
2023-01-26T10:26:59.688Z,3.75
2023-01-26T10:29:26.024Z,2.97
2023-01-26T10:31:52.460Z,2.88
2023-01-26T10:34:26.220Z,2.35
2023-01-26T10:36:56.806Z,2.38
2023-01-26T10:39:23.116Z,2.78
2023-01-26T10:41:57.970Z,3.03
2023-01-26T10:44:27.276Z,1.98
2023-01-26T10:47:23.132Z,2.13
2023-01-26T10:49:49.511Z,1.70
2023-01-26T10:52:23.450Z,1.92
2023-01-26T10:54:53.833Z,1.90
2023-01-26T10:57:30.600Z,2.00
2023-01-26T10:59:57.982Z,2.67
2023-01-26T11:02:27.594Z,2.20
2023-01-26T11:05:09.139Z,2.42
2023-01-26T11:07:45.823Z,1.67
2023-01-26T11:10:18.420Z,2.10
2023-01-26T11:12:44.939Z,2.38
2023-01-26T11:15:21.668Z,1.48
2023-01-26T11:17:51.020Z,1.80
2023-01-26T11:20:39.861Z,1.38
2023-01-26T11:23:12.546Z,2.03
2023-01-26T11:25:43.578Z,2.00
2023-01-26T11:28:15.942Z,2.42
2023-01-26T11:30:50.264Z,2.08
2023-01-26T11:33:29.868Z,2.42
2023-01-26T11:36:11.863Z,1.85
2023-01-26T11:38:39.933Z,2.15
2023-01-26T11:41:09.332Z,3.25
2023-01-26T11:43:38.465Z,2.80
2023-01-26T11:46:10.860Z,2.88
2023-01-26T11:48:56.087Z,2.30
2023-01-26T11:51:25.246Z,2.58
2023-01-26T11:54:03.086Z,3.35
2023-01-26T11:56:48.088Z,2.90
2023-01-26T11:59:28.732Z,1.60
2023-01-26T12:02:13.933Z,2.42
2023-01-26T12:04:45.408Z,2.25
2023-01-26T12:07:15.140Z,2.25
2023-01-26T12:09:45.153Z,2.55
2023-01-26T12:12:11.546Z,3.20
2023-01-26T12:14:41.796Z,2.85
2023-01-26T12:17:18.971Z,2.40
2023-01-26T12:19:57.293Z,2.60
2023-01-26T12:22:33.937Z,1.73
2023-01-26T12:25:28.822Z,2.40
2023-01-26T12:27:59.753Z,2.50
2023-01-26T12:30:39.405Z,2.95
2023-01-26T12:33:06.211Z,1.88
2023-01-26T12:35:40.265Z,3.92
2023-01-26T12:38:17.973Z,3.10
2023-01-26T12:41:01.257Z,2.63
2023-01-26T12:43:39.817Z,2.35
2023-01-26T12:46:07.917Z,2.13
2023-01-26T12:48:41.949Z,2.20
2023-01-26T12:51:15.984Z,1.83
2023-01-26T12:53:54.665Z,2.53
2023-01-26T12:56:44.157Z,2.97
2023-01-26T12:59:28.325Z,2.42
2023-01-26T13:02:19.752Z,2.53
2023-01-26T13:04:49.002Z,2.50
2023-01-26T13:07:30.914Z,2.75
2023-01-26T13:10:20.441Z,2.20
2023-01-26T13:12:48.587Z,2.78
2023-01-26T13:15:15.761Z,2.22
2023-01-26T13:17:48.703Z,2.80
2023-01-26T13:20:25.993Z,1.67
2023-01-26T13:22:53.086Z,2.58
2023-01-26T13:25:28.293Z,1.98
2023-01-26T13:27:59.089Z,2.00
2023-01-26T13:30:25.450Z,1.63
2023-01-26T13:32:53.156Z,1.35
2023-01-26T13:35:23.905Z,1.90
2023-01-26T13:37:53.290Z,2.28
2023-01-26T13:40:23.029Z,3.38
2023-01-26T13:42:56.358Z,2.63
2023-01-26T13:45:35.092Z,2.42
2023-01-26T13:48:02.112Z,2.33
2023-01-26T13:50:28.407Z,1.85
2023-01-26T13:52:54.719Z,2.03
2023-01-26T13:55:25.662Z,1.38
2023-01-26T13:58:10.911Z,1.88
2023-01-26T14:00:37.357Z,1.75
2023-01-26T14:03:03.998Z,1.50
2023-01-26T14:05:31.648Z,1.90
2023-01-26T14:07:59.419Z,1.17
2023-01-26T14:10:26.971Z,1.70
2023-01-26T14:12:57.375Z,1.98
2023-01-26T14:15:23.869Z,1.35
2023-01-26T14:17:52.104Z,1.45
2023-01-26T14:20:25.286Z,1.52
2023-01-26T14:23:03.756Z,1.92
2023-01-26T14:25:30.285Z,1.30
2023-01-26T14:27:56.637Z,1.73
2023-01-26T14:30:30.183Z,2.13
2023-01-26T14:32:59.927Z,1.45
2023-01-26T14:35:26.393Z,1.80
2023-01-26T14:38:04.447Z,1.80
2023-01-26T14:40:30.830Z,2.05
2023-01-26T14:42:57.618Z,1.63
2023-01-26T14:45:30.593Z,2.05
2023-01-26T14:48:00.162Z,1.33
2023-01-26T14:50:28.197Z,1.67
2023-01-26T14:52:54.566Z,1.35
2023-01-26T14:55:36.553Z,2.50
2023-01-26T14:58:04.489Z,1.73
2023-01-26T15:00:35.301Z,1.45
2023-01-26T15:03:06.828Z,1.85
2023-01-26T15:05:34.312Z,1.25
2023-01-26T15:08:05.024Z,0.98
2023-01-26T15:10:35.732Z,1.92
2023-01-26T15:13:04.041Z,1.38
2023-01-26T15:15:31.713Z,1.98
2023-01-26T15:18:02.007Z,1.40
2023-01-26T15:20:28.338Z,1.50
2023-01-26T15:22:54.835Z,1.80
2023-01-26T15:25:25.922Z,1.90
2023-01-26T15:27:53.611Z,0.95
2023-01-26T15:30:23.759Z,1.70
2023-01-26T15:32:50.100Z,1.50
2023-01-26T15:35:19.660Z,1.30
2023-01-26T15:37:46.363Z,1.80
2023-01-26T15:40:15.136Z,1.40
2023-01-26T15:42:41.827Z,1.52
2023-01-26T15:45:27.044Z,1.27
2023-01-26T15:47:53.503Z,1.40
2023-01-26T15:50:27.883Z,1.40
2023-01-26T15:52:54.952Z,0.97
2023-01-26T15:55:24.428Z,1.13
2023-01-26T15:57:50.912Z,0.90
2023-01-26T16:00:17.589Z,1.15
2023-01-26T16:02:44.486Z,0.70
2023-01-26T16:05:16.025Z,0.95
2023-01-26T16:07:42.619Z,1.10
2023-01-26T16:10:09.319Z,1.35
2023-01-26T16:12:35.756Z,1.02
2023-01-26T16:15:02.187Z,1.27
2023-01-26T16:17:28.772Z,1.30
2023-01-26T16:19:55.326Z,1.33
2023-01-26T16:22:21.995Z,1.40
2023-01-26T16:24:48.339Z,1.30
2023-01-26T16:27:14.683Z,1.58
2023-01-26T16:29:41.041Z,1.38
2023-01-26T16:32:24.028Z,2.05
2023-01-26T16:34:50.351Z,2.20
2023-01-26T16:37:16.697Z,1.00
2023-01-26T16:39:42.993Z,1.40
2023-01-26T16:42:11.189Z,1.60
2023-01-26T16:44:38.040Z,2.25
2023-01-26T16:47:04.879Z,1.30
2023-01-26T16:49:31.281Z,1.27
2023-01-26T16:51:57.596Z,1.67
2023-01-26T16:54:23.946Z,1.48
2023-01-26T16:56:50.291Z,1.17
2023-01-26T16:59:16.624Z,1.67
2023-01-26T17:01:43.053Z,2.30
2023-01-26T17:04:10.523Z,1.70
2023-01-26T17:06:36.833Z,1.17
2023-01-26T17:09:03.244Z,1.40
2023-01-26T17:11:29.641Z,1.45
2023-01-26T17:13:56.782Z,1.33
2023-01-26T17:16:25.398Z,1.42
2023-01-26T17:18:52.223Z,1.27
2023-01-26T17:21:19.544Z,1.35
2023-01-26T17:23:53.147Z,1.25
2023-01-26T17:26:20.602Z,1.55
2023-01-26T17:28:47.703Z,1.83
2023-01-26T17:31:17.482Z,1.45
2023-01-26T17:33:45.083Z,1.85
2023-01-26T17:36:11.959Z,1.80
2023-01-26T17:38:38.384Z,2.20
2023-01-26T17:41:05.284Z,1.77
2023-01-26T17:43:31.860Z,1.52
2023-01-26T17:46:05.284Z,1.92
2023-01-26T17:48:31.746Z,1.92
2023-01-26T17:50:58.133Z,1.92
2023-01-26T17:53:24.555Z,1.25
2023-01-26T17:55:54.314Z,1.33
2023-01-26T17:58:20.787Z,1.88
2023-01-26T18:00:47.231Z,1.60
2023-01-26T18:03:13.701Z,0.80
2023-01-26T18:05:40.011Z,1.33
2023-01-26T18:08:06.465Z,1.30
2023-01-26T18:10:32.847Z,1.60
2023-01-26T18:12:59.169Z,1.52
2023-01-26T18:15:25.514Z,1.75
2023-01-26T18:17:51.853Z,1.48
2023-01-26T18:20:18.325Z,1.42
2023-01-26T18:22:44.660Z,1.90
2023-01-26T18:25:11.716Z,1.40
2023-01-26T18:27:38.399Z,1.55
2023-01-26T18:30:05.001Z,1.40
2023-01-26T18:32:31.320Z,1.48
2023-01-26T18:34:57.636Z,1.73
2023-01-26T18:37:24.025Z,1.70
2023-01-26T18:39:50.409Z,2.65
2023-01-26T18:42:16.847Z,1.83
2023-01-26T18:44:43.201Z,1.60
2023-01-26T18:47:09.527Z,2.03
2023-01-26T18:49:35.854Z,1.15
2023-01-26T18:52:02.176Z,1.00
2023-01-26T18:54:29.247Z,2.00
2023-01-26T18:56:56.873Z,1.55
2023-01-26T18:59:23.218Z,1.17
2023-01-26T19:01:49.644Z,1.33
2023-01-26T19:04:18.171Z,1.77
2023-01-26T19:06:44.748Z,1.15
2023-01-26T19:09:11.748Z,1.52
2023-01-26T19:11:38.794Z,1.40
2023-01-26T19:14:05.802Z,1.55
2023-01-26T19:16:32.639Z,1.85
2023-01-26T19:18:59.252Z,1.30
2023-01-26T19:21:27.407Z,1.23
2023-01-26T19:23:54.934Z,1.48
2023-01-26T19:26:23.230Z,1.60
2023-01-26T19:28:50.964Z,1.67
2023-01-26T19:31:19.447Z,1.23
2023-01-26T19:33:49.722Z,1.27
2023-01-26T19:36:16.108Z,1.52
2023-01-26T19:38:42.594Z,1.65
2023-01-26T19:41:09.001Z,1.30
2023-01-26T19:43:35.551Z,1.42
2023-01-26T19:46:02.615Z,1.13
2023-01-26T19:48:29.234Z,1.63
2023-01-26T19:50:59.515Z,1.73
2023-01-26T19:53:26.230Z,2.13
2023-01-26T19:55:52.577Z,1.35
2023-01-26T19:58:19.052Z,2.20
2023-01-26T20:00:45.347Z,1.83
2023-01-26T20:03:11.652Z,2.15
2023-01-26T20:05:38.943Z,2.40
2023-01-26T20:08:05.317Z,2.30
2023-01-26T20:10:31.789Z,1.65
2023-01-26T20:12:58.575Z,2.30
2023-01-26T20:15:24.985Z,1.60
2023-01-26T20:17:51.378Z,2.47
2023-01-26T20:20:18.058Z,1.92
2023-01-26T20:22:44.390Z,2.30
2023-01-26T20:25:11.721Z,1.73
2023-01-26T20:27:38.347Z,1.48
2023-01-26T20:30:05.568Z,2.35
2023-01-26T20:32:31.939Z,1.55
2023-01-26T20:34:58.247Z,1.52
2023-01-26T20:37:24.610Z,2.10
2023-01-26T20:39:51.093Z,1.63
2023-01-26T20:42:18.844Z,1.83
2023-01-26T20:44:45.311Z,2.25
2023-01-26T20:47:11.722Z,1.90
2023-01-26T20:49:38.075Z,1.75
2023-01-26T20:52:08.197Z,1.88
2023-01-26T20:54:35.536Z,1.92
2023-01-26T20:57:02.292Z,2.67
2023-01-26T20:59:28.673Z,2.22
2023-01-26T21:01:55.074Z,2.58
2023-01-26T21:04:21.457Z,2.80
2023-01-26T21:06:47.817Z,2.78
2023-01-26T21:09:14.167Z,2.75
2023-01-26T21:11:40.620Z,2.28
2023-01-26T21:14:07.030Z,2.97
2023-01-26T21:16:35.625Z,1.92
2023-01-26T21:19:02.086Z,2.20
2023-01-26T21:21:28.430Z,2.53
2023-01-26T21:23:54.817Z,2.47
2023-01-26T21:26:22.944Z,2.42
2023-01-26T21:28:50.551Z,2.88
2023-01-26T21:31:17.037Z,2.63
2023-01-26T21:33:44.600Z,3.15
2023-01-26T21:36:12.880Z,2.55
2023-01-26T21:38:41.156Z,2.83
2023-01-26T21:41:30.420Z,2.80
2023-01-26T21:44:00.729Z,1.98
2023-01-26T21:46:27.417Z,2.92
2023-01-26T21:48:53.744Z,2.25
2023-01-26T21:51:38.747Z,2.33
2023-01-26T21:54:08.084Z,2.33
2023-01-26T21:56:34.896Z,2.55
2023-01-26T21:59:06.255Z,2.15
2023-01-26T22:01:33.577Z,2.60
2023-01-26T22:04:01.545Z,2.15
2023-01-26T22:06:28.383Z,2.83
2023-01-26T22:08:55.172Z,2.00
2023-01-26T22:11:22.220Z,2.83
2023-01-26T22:13:48.773Z,2.65
2023-01-26T22:16:15.324Z,2.53
2023-01-26T22:18:41.786Z,2.50
2023-01-26T22:21:08.126Z,2.40
2023-01-26T22:23:35.248Z,2.30
2023-01-26T22:26:05.577Z,3.35
2023-01-26T22:28:32.340Z,2.50
2023-01-26T22:31:02.990Z,3.67
2023-01-26T22:33:29.540Z,2.97
2023-01-26T22:35:59.999Z,2.70
2023-01-26T22:38:26.367Z,3.05
2023-01-26T22:40:52.680Z,2.83
2023-01-26T22:43:18.973Z,2.60
2023-01-26T22:45:45.323Z,3.17
2023-01-26T22:48:11.619Z,3.00
2023-01-26T22:50:38.104Z,3.25
2023-01-26T22:53:04.557Z,2.72
2023-01-26T22:55:30.872Z,2.90
2023-01-26T22:57:57.220Z,2.58
2023-01-26T23:00:23.620Z,3.17
2023-01-26T23:02:50.239Z,2.75
2023-01-26T23:05:16.662Z,2.92
2023-01-26T23:07:43.003Z,2.90
2023-01-26T23:10:09.789Z,2.30
2023-01-26T23:12:36.232Z,2.35
2023-01-26T23:15:02.574Z,3.05
2023-01-26T23:17:29.031Z,3.90
2023-01-26T23:19:55.408Z,3.40
2023-01-26T23:22:21.815Z,2.80
2023-01-26T23:25:08.096Z,2.78
2023-01-26T23:30:03.080Z,2.70
2023-01-26T23:32:29.736Z,2.33
2023-01-26T23:34:56.109Z,3.28
2023-01-26T23:37:22.514Z,2.53
2023-01-26T23:39:48.839Z,2.72
2023-01-26T23:42:15.965Z,2.60
2023-01-26T23:44:42.348Z,3.58
2023-01-26T23:47:08.813Z,2.58
2023-01-26T23:49:35.229Z,3.45
2023-01-26T23:52:01.550Z,3.20
2023-01-26T23:54:27.905Z,4.15
2023-01-26T23:56:54.258Z,3.10
2023-01-26T23:59:21.203Z,2.63
